sensor_id;sensor_type;location;lat;lon;timestamp;pressure;altitude;pressure_sealevel;temperature;humidity
63009;BME280;49099;28.428;-16.488;2023-04-27T00:00:02;98354.59;;;20.81;65.44
63009;BME280;49099;28.428;-16.488;2023-04-27T00:02:32;98349.56;;;20.80;65.38
63009;BME280;49099;28.428;-16.488;2023-04-27T00:04:59;98344.94;;;20.80;65.02
63009;BME280;49099;28.428;-16.488;2023-04-27T00:07:28;98331.34;;;20.77;64.94
63009;BME280;49099;28.428;-16.488;2023-04-27T00:09:55;98333.47;;;20.71;64.21
63009;BME280;49099;28.428;-16.488;2023-04-27T00:12:22;98328.63;;;20.65;63.54
63009;BME280;49099;28.428;-16.488;2023-04-27T00:14:49;98322.84;;;20.54;63.26
63009;BME280;49099;28.428;-16.488;2023-04-27T00:17:16;98321.97;;;20.50;63.85
63009;BME280;49099;28.428;-16.488;2023-04-27T00:19:43;98316.13;;;20.48;63.85
63009;BME280;49099;28.428;-16.488;2023-04-27T00:22:10;98319.47;;;20.45;63.64
63009;BME280;49099;28.428;-16.488;2023-04-27T00:24:38;98327.88;;;20.43;63.57
63009;BME280;49099;28.428;-16.488;2023-04-27T00:27:05;98329.31;;;20.41;63.88
63009;BME280;49099;28.428;-16.488;2023-04-27T00:29:32;98324.38;;;20.43;63.76
63009;BME280;49099;28.428;-16.488;2023-04-27T00:31:59;98325.38;;;20.38;63.75
63009;BME280;49099;28.428;-16.488;2023-04-27T00:34:27;98322.22;;;20.36;64.44
63009;BME280;49099;28.428;-16.488;2023-04-27T00:36:54;98322.13;;;20.33;64.56
63009;BME280;49099;28.428;-16.488;2023-04-27T00:39:21;98316.72;;;20.33;64.86
63009;BME280;49099;28.428;-16.488;2023-04-27T00:41:48;98313.69;;;20.34;64.36
63009;BME280;49099;28.428;-16.488;2023-04-27T00:44:22;98311.69;;;20.43;64.31
63009;BME280;49099;28.428;-16.488;2023-04-27T00:46:50;98311.88;;;20.47;64.19
63009;BME280;49099;28.428;-16.488;2023-04-27T00:49:19;98296.41;;;20.35;63.43
63009;BME280;49099;28.428;-16.488;2023-04-27T00:51:47;98299.44;;;20.34;62.22
63009;BME280;49099;28.428;-16.488;2023-04-27T00:54:14;98300.75;;;20.27;63.43
63009;BME280;49099;28.428;-16.488;2023-04-27T00:56:47;98293.59;;;20.31;63.21
63009;BME280;49099;28.428;-16.488;2023-04-27T00:59:15;98294.50;;;20.36;64.26
63009;BME280;49099;28.428;-16.488;2023-04-27T01:01:43;98289.25;;;20.39;64.44
63009;BME280;49099;28.428;-16.488;2023-04-27T01:04:11;98301.91;;;20.39;63.35
63009;BME280;49099;28.428;-16.488;2023-04-27T01:06:38;98304.16;;;20.37;62.40
63009;BME280;49099;28.428;-16.488;2023-04-27T01:09:05;98310.81;;;20.39;62.04
63009;BME280;49099;28.428;-16.488;2023-04-27T01:11:34;98311.25;;;20.41;63.03
63009;BME280;49099;28.428;-16.488;2023-04-27T01:17:59;98293.66;;;20.23;64.99
63009;BME280;49099;28.428;-16.488;2023-04-27T01:20:27;98291.66;;;20.20;65.48
63009;BME280;49099;28.428;-16.488;2023-04-27T01:22:56;98294.69;;;20.18;65.21
63009;BME280;49099;28.428;-16.488;2023-04-27T01:25:24;98293.09;;;20.17;65.17
63009;BME280;49099;28.428;-16.488;2023-04-27T01:27:51;98280.78;;;20.16;64.99
63009;BME280;49099;28.428;-16.488;2023-04-27T01:30:20;98281.91;;;20.27;64.73
63009;BME280;49099;28.428;-16.488;2023-04-27T01:32:48;98279.22;;;20.27;64.48
63009;BME280;49099;28.428;-16.488;2023-04-27T01:35:16;98271.47;;;20.26;64.29
63009;BME280;49099;28.428;-16.488;2023-04-27T01:37:43;98267.56;;;20.23;64.21
63009;BME280;49099;28.428;-16.488;2023-04-27T01:40:11;98263.16;;;20.19;64.90
63009;BME280;49099;28.428;-16.488;2023-04-27T01:42:38;98262.38;;;20.18;65.34
63009;BME280;49099;28.428;-16.488;2023-04-27T01:45:06;98269.31;;;20.19;65.48
63009;BME280;49099;28.428;-16.488;2023-04-27T01:47:33;98284.94;;;20.26;65.21
63009;BME280;49099;28.428;-16.488;2023-04-27T01:50:01;98290.34;;;20.26;64.88
63009;BME280;49099;28.428;-16.488;2023-04-27T01:52:28;98292.00;;;20.30;64.70
63009;BME280;49099;28.428;-16.488;2023-04-27T01:54:55;98293.28;;;20.33;64.72
63009;BME280;49099;28.428;-16.488;2023-04-27T01:57:22;98299.09;;;20.35;64.56
63009;BME280;49099;28.428;-16.488;2023-04-27T01:59:51;98295.81;;;20.29;64.88
63009;BME280;49099;28.428;-16.488;2023-04-27T02:02:18;98292.44;;;20.20;65.00
63009;BME280;49099;28.428;-16.488;2023-04-27T02:04:45;98287.25;;;20.15;65.24
63009;BME280;49099;28.428;-16.488;2023-04-27T02:07:12;98292.06;;;20.10;65.29
63009;BME280;49099;28.428;-16.488;2023-04-27T02:09:40;98298.56;;;20.09;66.11
63009;BME280;49099;28.428;-16.488;2023-04-27T02:12:07;98302.94;;;20.13;65.96
63009;BME280;49099;28.428;-16.488;2023-04-27T02:14:34;98311.63;;;20.19;66.08
63009;BME280;49099;28.428;-16.488;2023-04-27T02:17:01;98307.28;;;20.26;66.13
63009;BME280;49099;28.428;-16.488;2023-04-27T02:19:28;98301.44;;;20.24;66.52
63009;BME280;49099;28.428;-16.488;2023-04-27T02:21:56;98291.53;;;20.16;66.60
63009;BME280;49099;28.428;-16.488;2023-04-27T02:24:23;98287.59;;;20.14;66.83
63009;BME280;49099;28.428;-16.488;2023-04-27T02:26:50;98283.13;;;20.18;66.38
63009;BME280;49099;28.428;-16.488;2023-04-27T02:29:17;98285.47;;;20.19;65.49
63009;BME280;49099;28.428;-16.488;2023-04-27T02:31:45;98285.22;;;20.12;64.13
63009;BME280;49099;28.428;-16.488;2023-04-27T02:34:12;98286.69;;;20.10;62.49
63009;BME280;49099;28.428;-16.488;2023-04-27T02:36:39;98275.91;;;20.10;62.61
63009;BME280;49099;28.428;-16.488;2023-04-27T02:39:06;98272.88;;;20.11;62.57
63009;BME280;49099;28.428;-16.488;2023-04-27T02:41:34;98271.31;;;20.10;62.77
63009;BME280;49099;28.428;-16.488;2023-04-27T02:44:01;98271.75;;;20.00;64.27
63009;BME280;49099;28.428;-16.488;2023-04-27T02:46:28;98274.72;;;19.98;64.83
63009;BME280;49099;28.428;-16.488;2023-04-27T02:48:55;98262.72;;;19.96;65.24
63009;BME280;49099;28.428;-16.488;2023-04-27T02:51:22;98262.28;;;19.94;65.22
63009;BME280;49099;28.428;-16.488;2023-04-27T02:53:51;98255.97;;;19.90;65.75
63009;BME280;49099;28.428;-16.488;2023-04-27T02:56:19;98254.06;;;19.90;66.29
63009;BME280;49099;28.428;-16.488;2023-04-27T02:58:46;98229.72;;;19.87;65.52
63009;BME280;49099;28.428;-16.488;2023-04-27T03:01:16;98226.44;;;19.81;65.64
63009;BME280;49099;28.428;-16.488;2023-04-27T03:03:45;98223.16;;;19.75;66.30
63009;BME280;49099;28.428;-16.488;2023-04-27T03:06:13;98215.31;;;19.70;66.75
63009;BME280;49099;28.428;-16.488;2023-04-27T03:08:41;98226.88;;;19.71;66.55
63009;BME280;49099;28.428;-16.488;2023-04-27T03:11:08;98214.19;;;19.71;66.73
63009;BME280;49099;28.428;-16.488;2023-04-27T03:13:35;98219.56;;;19.71;66.69
63009;BME280;49099;28.428;-16.488;2023-04-27T03:16:09;98216.22;;;19.74;66.70
63009;BME280;49099;28.428;-16.488;2023-04-27T03:18:39;98215.34;;;19.83;66.34
63009;BME280;49099;28.428;-16.488;2023-04-27T03:21:08;98216.59;;;19.85;65.97
63009;BME280;49099;28.428;-16.488;2023-04-27T03:23:36;98218.81;;;19.83;65.85
63009;BME280;49099;28.428;-16.488;2023-04-27T03:26:08;98216.59;;;19.85;65.42
63009;BME280;49099;28.428;-16.488;2023-04-27T03:28:36;98213.13;;;19.85;65.75
63009;BME280;49099;28.428;-16.488;2023-04-27T03:31:11;98211.47;;;19.92;65.08
63009;BME280;49099;28.428;-16.488;2023-04-27T03:33:39;98210.22;;;19.90;65.57
63009;BME280;49099;28.428;-16.488;2023-04-27T03:36:08;98217.41;;;19.86;66.00
63009;BME280;49099;28.428;-16.488;2023-04-27T03:38:37;98214.16;;;19.92;65.50
63009;BME280;49099;28.428;-16.488;2023-04-27T03:41:04;98202.59;;;19.92;65.40
63009;BME280;49099;28.428;-16.488;2023-04-27T03:43:31;98199.00;;;19.88;64.89
63009;BME280;49099;28.428;-16.488;2023-04-27T03:45:58;98194.75;;;19.87;65.32
63009;BME280;49099;28.428;-16.488;2023-04-27T03:48:25;98179.81;;;19.89;65.51
63009;BME280;49099;28.428;-16.488;2023-04-27T03:50:53;98178.94;;;19.97;65.41
63009;BME280;49099;28.428;-16.488;2023-04-27T03:53:20;98183.34;;;20.02;65.33
63009;BME280;49099;28.428;-16.488;2023-04-27T03:55:47;98188.06;;;20.05;65.39
63009;BME280;49099;28.428;-16.488;2023-04-27T03:58:14;98186.47;;;20.04;65.43
63009;BME280;49099;28.428;-16.488;2023-04-27T04:00:43;98190.50;;;19.98;65.51
63009;BME280;49099;28.428;-16.488;2023-04-27T04:03:10;98194.84;;;19.90;65.08
63009;BME280;49099;28.428;-16.488;2023-04-27T04:05:37;98197.22;;;19.92;65.13
63009;BME280;49099;28.428;-16.488;2023-04-27T04:08:04;98189.13;;;19.92;65.50
63009;BME280;49099;28.428;-16.488;2023-04-27T04:10:32;98192.84;;;19.87;65.53
63009;BME280;49099;28.428;-16.488;2023-04-27T04:12:59;98192.25;;;19.82;65.65
63009;BME280;49099;28.428;-16.488;2023-04-27T04:15:26;98183.28;;;19.78;66.00
63009;BME280;49099;28.428;-16.488;2023-04-27T04:17:54;98192.44;;;19.76;66.61
63009;BME280;49099;28.428;-16.488;2023-04-27T04:20:24;98185.50;;;19.75;66.67
63009;BME280;49099;28.428;-16.488;2023-04-27T04:22:52;98191.78;;;19.80;66.51
63009;BME280;49099;28.428;-16.488;2023-04-27T04:25:19;98189.22;;;19.83;66.82
63009;BME280;49099;28.428;-16.488;2023-04-27T04:27:46;98187.31;;;19.84;67.11
63009;BME280;49099;28.428;-16.488;2023-04-27T04:30:14;98184.19;;;19.82;67.47
63009;BME280;49099;28.428;-16.488;2023-04-27T04:32:41;98194.28;;;19.85;67.21
63009;BME280;49099;28.428;-16.488;2023-04-27T04:35:10;98187.41;;;19.75;67.51
63009;BME280;49099;28.428;-16.488;2023-04-27T04:37:38;98186.84;;;19.69;68.23
63009;BME280;49099;28.428;-16.488;2023-04-27T04:40:06;98199.16;;;19.70;67.77
63009;BME280;49099;28.428;-16.488;2023-04-27T04:42:36;98204.31;;;19.75;67.97
63009;BME280;49099;28.428;-16.488;2023-04-27T04:45:04;98199.63;;;19.72;68.04
63009;BME280;49099;28.428;-16.488;2023-04-27T04:47:33;98196.47;;;19.70;68.07
63009;BME280;49099;28.428;-16.488;2023-04-27T04:50:00;98199.63;;;19.72;68.21
63009;BME280;49099;28.428;-16.488;2023-04-27T04:52:27;98208.13;;;19.74;68.41
63009;BME280;49099;28.428;-16.488;2023-04-27T04:54:55;98210.03;;;19.74;68.24
63009;BME280;49099;28.428;-16.488;2023-04-27T04:57:22;98209.53;;;19.81;68.46
63009;BME280;49099;28.428;-16.488;2023-04-27T04:59:49;98211.28;;;19.76;68.41
63009;BME280;49099;28.428;-16.488;2023-04-27T05:02:16;98212.47;;;19.67;68.79
63009;BME280;49099;28.428;-16.488;2023-04-27T05:04:44;98215.06;;;19.63;68.85
63009;BME280;49099;28.428;-16.488;2023-04-27T05:07:12;98216.81;;;19.59;68.96
63009;BME280;49099;28.428;-16.488;2023-04-27T05:09:41;98221.75;;;19.57;68.92
63009;BME280;49099;28.428;-16.488;2023-04-27T05:12:08;98212.41;;;19.55;68.98
63009;BME280;49099;28.428;-16.488;2023-04-27T05:14:35;98202.44;;;19.55;69.38
63009;BME280;49099;28.428;-16.488;2023-04-27T05:17:03;98197.69;;;19.52;69.51
63009;BME280;49099;28.428;-16.488;2023-04-27T05:19:30;98200.09;;;19.54;69.94
63009;BME280;49099;28.428;-16.488;2023-04-27T05:21:57;98198.63;;;19.56;69.86
63009;BME280;49099;28.428;-16.488;2023-04-27T05:24:25;98197.84;;;19.56;69.75
63009;BME280;49099;28.428;-16.488;2023-04-27T05:26:52;98190.75;;;19.51;69.54
63009;BME280;49099;28.428;-16.488;2023-04-27T05:29:21;98199.94;;;19.50;69.68
63009;BME280;49099;28.428;-16.488;2023-04-27T05:31:48;98201.50;;;19.51;69.61
63009;BME280;49099;28.428;-16.488;2023-04-27T05:34:15;98200.22;;;19.57;69.68
63009;BME280;49099;28.428;-16.488;2023-04-27T05:36:43;98210.31;;;19.60;68.85
63009;BME280;49099;28.428;-16.488;2023-04-27T05:39:12;98203.38;;;19.59;69.07
63009;BME280;49099;28.428;-16.488;2023-04-27T05:41:40;98217.59;;;19.60;68.96
63009;BME280;49099;28.428;-16.488;2023-04-27T05:44:08;98218.88;;;19.62;68.89
63009;BME280;49099;28.428;-16.488;2023-04-27T05:46:35;98219.38;;;19.56;68.83
63009;BME280;49099;28.428;-16.488;2023-04-27T05:49:04;98216.75;;;19.47;69.20
63009;BME280;49099;28.428;-16.488;2023-04-27T05:51:32;98228.81;;;19.41;69.47
63009;BME280;49099;28.428;-16.488;2023-04-27T05:53:59;98228.16;;;19.44;69.83
63009;BME280;49099;28.428;-16.488;2023-04-27T05:56:27;98230.66;;;19.49;69.44
63009;BME280;49099;28.428;-16.488;2023-04-27T05:58:54;98224.47;;;19.48;69.20
63009;BME280;49099;28.428;-16.488;2023-04-27T06:01:22;98228.41;;;19.51;69.38
63009;BME280;49099;28.428;-16.488;2023-04-27T06:03:50;98234.00;;;19.46;69.11
63009;BME280;49099;28.428;-16.488;2023-04-27T06:06:17;98239.16;;;19.51;69.11
63009;BME280;49099;28.428;-16.488;2023-04-27T06:08:44;98253.06;;;19.53;68.84
63009;BME280;49099;28.428;-16.488;2023-04-27T06:11:11;98252.63;;;19.51;68.89
63009;BME280;49099;28.428;-16.488;2023-04-27T06:13:38;98262.94;;;19.49;69.04
63009;BME280;49099;28.428;-16.488;2023-04-27T06:16:06;98264.22;;;19.43;69.37
63009;BME280;49099;28.428;-16.488;2023-04-27T06:18:34;98273.56;;;19.45;69.38
63009;BME280;49099;28.428;-16.488;2023-04-27T06:21:01;98271.84;;;19.41;69.97
63009;BME280;49099;28.428;-16.488;2023-04-27T06:23:28;98273.28;;;19.38;70.39
63009;BME280;49099;28.428;-16.488;2023-04-27T06:25:56;98275.66;;;19.40;70.58
63009;BME280;49099;28.428;-16.488;2023-04-27T06:28:24;98269.59;;;19.43;70.60
63009;BME280;49099;28.428;-16.488;2023-04-27T06:30:52;98278.13;;;19.45;70.84
63009;BME280;49099;28.428;-16.488;2023-04-27T06:33:19;98276.81;;;19.51;70.62
63009;BME280;49099;28.428;-16.488;2023-04-27T06:35:46;98292.16;;;19.59;70.10
63009;BME280;49099;28.428;-16.488;2023-04-27T06:38:13;98289.72;;;19.66;69.35
63009;BME280;49099;28.428;-16.488;2023-04-27T06:40:40;98291.19;;;19.64;69.34
63009;BME280;49099;28.428;-16.488;2023-04-27T06:43:08;98304.97;;;19.62;69.62
63009;BME280;49099;28.428;-16.488;2023-04-27T06:45:35;98305.88;;;19.66;69.22
63009;BME280;49099;28.428;-16.488;2023-04-27T06:48:02;98305.41;;;19.64;69.07
63009;BME280;49099;28.428;-16.488;2023-04-27T06:50:29;98314.59;;;19.63;68.58
63009;BME280;49099;28.428;-16.488;2023-04-27T06:52:56;98312.38;;;19.65;68.30
63009;BME280;49099;28.428;-16.488;2023-04-27T06:55:23;98315.72;;;19.62;68.39
63009;BME280;49099;28.428;-16.488;2023-04-27T06:57:50;98321.75;;;19.59;68.28
63009;BME280;49099;28.428;-16.488;2023-04-27T07:00:18;98321.09;;;19.62;68.32
63009;BME280;49099;28.428;-16.488;2023-04-27T07:02:45;98322.69;;;19.63;67.93
63009;BME280;49099;28.428;-16.488;2023-04-27T07:05:13;98323.47;;;19.64;67.75
63009;BME280;49099;28.428;-16.488;2023-04-27T07:07:40;98327.41;;;19.66;67.16
63009;BME280;49099;28.428;-16.488;2023-04-27T07:10:07;98330.41;;;19.65;66.98
63009;BME280;49099;28.428;-16.488;2023-04-27T07:12:36;98331.19;;;19.65;66.89
63009;BME280;49099;28.428;-16.488;2023-04-27T07:15:04;98318.88;;;19.64;67.13
63009;BME280;49099;28.428;-16.488;2023-04-27T07:17:32;98323.72;;;19.71;66.65
63009;BME280;49099;28.428;-16.488;2023-04-27T07:20:03;98316.91;;;19.73;66.57
63009;BME280;49099;28.428;-16.488;2023-04-27T07:22:32;98314.03;;;19.79;66.39
63009;BME280;49099;28.428;-16.488;2023-04-27T07:24:59;98308.91;;;19.86;65.85
63009;BME280;49099;28.428;-16.488;2023-04-27T07:27:27;98308.38;;;19.92;65.48
63009;BME280;49099;28.428;-16.488;2023-04-27T07:29:54;98301.19;;;19.96;64.71
63009;BME280;49099;28.428;-16.488;2023-04-27T07:32:21;98296.78;;;19.92;64.55
63009;BME280;49099;28.428;-16.488;2023-04-27T07:34:48;98294.25;;;19.95;64.90
63009;BME280;49099;28.428;-16.488;2023-04-27T07:37:20;98292.59;;;20.03;64.37
63009;BME280;49099;28.428;-16.488;2023-04-27T07:39:49;98301.38;;;20.12;63.99
63009;BME280;49099;28.428;-16.488;2023-04-27T07:42:18;98294.22;;;20.16;64.40
63009;BME280;49099;28.428;-16.488;2023-04-27T07:44:48;98308.59;;;20.20;63.48
63009;BME280;49099;28.428;-16.488;2023-04-27T07:47:16;98298.75;;;20.24;63.62
63009;BME280;49099;28.428;-16.488;2023-04-27T07:49:45;98306.75;;;20.33;63.80
63009;BME280;49099;28.428;-16.488;2023-04-27T07:52:13;98316.97;;;20.40;64.34
63009;BME280;49099;28.428;-16.488;2023-04-27T07:54:41;98312.69;;;20.39;64.19
63009;BME280;49099;28.428;-16.488;2023-04-27T07:57:09;98312.91;;;20.34;64.27
63009;BME280;49099;28.428;-16.488;2023-04-27T07:59:38;98312.41;;;20.19;64.18
63009;BME280;49099;28.428;-16.488;2023-04-27T08:02:05;98310.69;;;20.15;64.17
63009;BME280;49099;28.428;-16.488;2023-04-27T08:04:44;98318.47;;;20.16;64.40
63009;BME280;49099;28.428;-16.488;2023-04-27T08:07:12;98319.38;;;20.20;64.03
63009;BME280;49099;28.428;-16.488;2023-04-27T08:09:39;98326.56;;;20.28;63.95
63009;BME280;49099;28.428;-16.488;2023-04-27T08:12:06;98312.91;;;20.34;63.57
63009;BME280;49099;28.428;-16.488;2023-04-27T08:14:34;98320.75;;;20.39;63.22
63009;BME280;49099;28.428;-16.488;2023-04-27T08:17:01;98327.75;;;20.40;63.13
63009;BME280;49099;28.428;-16.488;2023-04-27T08:19:29;98320.13;;;20.42;63.05
63009;BME280;49099;28.428;-16.488;2023-04-27T08:21:56;98316.63;;;20.41;63.00
63009;BME280;49099;28.428;-16.488;2023-04-27T08:24:23;98315.06;;;20.40;62.46
63009;BME280;49099;28.428;-16.488;2023-04-27T08:26:50;98310.13;;;20.42;62.29
63009;BME280;49099;28.428;-16.488;2023-04-27T08:29:17;98298.22;;;20.43;62.11
63009;BME280;49099;28.428;-16.488;2023-04-27T08:31:54;98290.31;;;20.47;62.32
63009;BME280;49099;28.428;-16.488;2023-04-27T08:34:22;98303.34;;;20.57;62.31
63009;BME280;49099;28.428;-16.488;2023-04-27T08:36:50;98283.81;;;20.60;62.08
63009;BME280;49099;28.428;-16.488;2023-04-27T08:39:17;98280.91;;;20.65;61.96
63009;BME280;49099;28.428;-16.488;2023-04-27T08:41:44;98292.72;;;20.73;61.68
63009;BME280;49099;28.428;-16.488;2023-04-27T08:44:12;98282.59;;;20.70;61.93
63009;BME280;49099;28.428;-16.488;2023-04-27T08:46:39;98285.63;;;20.68;62.39
63009;BME280;49099;28.428;-16.488;2023-04-27T08:49:07;98287.88;;;20.66;62.80
63009;BME280;49099;28.428;-16.488;2023-04-27T08:51:35;98292.56;;;20.69;62.63
63009;BME280;49099;28.428;-16.488;2023-04-27T08:54:02;98293.16;;;20.75;62.60
63009;BME280;49099;28.428;-16.488;2023-04-27T08:56:30;98301.25;;;20.75;62.31
63009;BME280;49099;28.428;-16.488;2023-04-27T08:58:57;98295.75;;;20.71;62.92
63009;BME280;49099;28.428;-16.488;2023-04-27T09:01:26;98288.78;;;20.70;62.82
63009;BME280;49099;28.428;-16.488;2023-04-27T09:04:00;98296.63;;;20.75;62.61
63009;BME280;49099;28.428;-16.488;2023-04-27T09:06:34;98303.81;;;20.71;62.87
63009;BME280;49099;28.428;-16.488;2023-04-27T09:09:02;98296.28;;;20.65;62.73
63009;BME280;49099;28.428;-16.488;2023-04-27T09:11:34;98309.19;;;20.59;62.88
63009;BME280;49099;28.428;-16.488;2023-04-27T09:14:14;98311.44;;;20.57;62.74
63009;BME280;49099;28.428;-16.488;2023-04-27T09:16:42;98316.94;;;20.61;62.94
63009;BME280;49099;28.428;-16.488;2023-04-27T09:19:10;98311.88;;;20.59;63.20
63009;BME280;49099;28.428;-16.488;2023-04-27T09:21:38;98315.34;;;20.59;63.04
63009;BME280;49099;28.428;-16.488;2023-04-27T09:24:12;98314.13;;;20.69;62.74
63009;BME280;49099;28.428;-16.488;2023-04-27T09:26:39;98311.91;;;20.71;62.81
63009;BME280;49099;28.428;-16.488;2023-04-27T09:29:09;98310.34;;;20.70;62.84
63009;BME280;49099;28.428;-16.488;2023-04-27T09:31:37;98306.75;;;20.78;62.68
63009;BME280;49099;28.428;-16.488;2023-04-27T09:34:04;98302.94;;;20.79;62.62
63009;BME280;49099;28.428;-16.488;2023-04-27T09:36:31;98306.09;;;20.81;62.51
63009;BME280;49099;28.428;-16.488;2023-04-27T09:39:02;98292.84;;;20.89;62.69
63009;BME280;49099;28.428;-16.488;2023-04-27T09:41:32;98291.72;;;21.02;62.46
63009;BME280;49099;28.428;-16.488;2023-04-27T09:43:59;98280.13;;;21.13;61.94
63009;BME280;49099;28.428;-16.488;2023-04-27T09:46:28;98274.53;;;21.19;61.74
63009;BME280;49099;28.428;-16.488;2023-04-27T09:48:57;98277.09;;;21.15;61.68
63009;BME280;49099;28.428;-16.488;2023-04-27T09:51:24;98264.97;;;21.21;61.67
63009;BME280;49099;28.428;-16.488;2023-04-27T09:53:53;98263.63;;;21.27;61.28
63009;BME280;49099;28.428;-16.488;2023-04-27T10:01:56;98240.00;;;21.49;60.73
63009;BME280;49099;28.428;-16.488;2023-04-27T10:07:16;98240.38;;;21.63;60.27
63009;BME280;49099;28.428;-16.488;2023-04-27T10:09:48;98240.16;;;21.68;60.43
63009;BME280;49099;28.428;-16.488;2023-04-27T10:12:34;98233.81;;;21.76;60.22
63009;BME280;49099;28.428;-16.488;2023-04-27T10:17:47;98230.47;;;21.79;60.32
63009;BME280;49099;28.428;-16.488;2023-04-27T10:20:15;98234.38;;;21.82;60.41
63009;BME280;49099;28.428;-16.488;2023-04-27T10:22:47;98229.75;;;21.82;60.26
63009;BME280;49099;28.428;-16.488;2023-04-27T10:28:03;98235.78;;;21.91;59.51
63009;BME280;49099;28.428;-16.488;2023-04-27T10:30:34;98231.53;;;21.90;60.25
63009;BME280;49099;28.428;-16.488;2023-04-27T10:33:07;98221.84;;;21.89;60.42
63009;BME280;49099;28.428;-16.488;2023-04-27T10:35:36;98225.41;;;21.93;60.45
63009;BME280;49099;28.428;-16.488;2023-04-27T10:38:08;98220.72;;;21.90;60.52
63009;BME280;49099;28.428;-16.488;2023-04-27T10:40:37;98230.16;;;21.96;60.47
63009;BME280;49099;28.428;-16.488;2023-04-27T10:43:09;98231.91;;;22.05;60.36
63009;BME280;49099;28.428;-16.488;2023-04-27T10:45:37;98239.78;;;22.10;59.96
63009;BME280;49099;28.428;-16.488;2023-04-27T10:48:05;98230.09;;;22.09;59.99
63009;BME280;49099;28.428;-16.488;2023-04-27T10:50:32;98232.13;;;22.12;60.01
63009;BME280;49099;28.428;-16.488;2023-04-27T10:53:02;98234.66;;;22.20;59.85
63009;BME280;49099;28.428;-16.488;2023-04-27T10:55:30;98242.59;;;22.29;59.74
63009;BME280;49099;28.428;-16.488;2023-04-27T10:57:57;98261.28;;;22.34;59.62
63009;BME280;49099;28.428;-16.488;2023-04-27T11:00:35;98282.34;;;22.29;59.81
63009;BME280;49099;28.428;-16.488;2023-04-27T11:03:18;98296.16;;;22.11;60.20
63009;BME280;49099;28.428;-16.488;2023-04-27T11:05:48;98310.34;;;22.08;60.21
63009;BME280;49099;28.428;-16.488;2023-04-27T11:08:16;98326.03;;;21.90;60.81
63009;BME280;49099;28.428;-16.488;2023-04-27T11:10:49;98323.31;;;21.90;60.54
63009;BME280;49099;28.428;-16.488;2023-04-27T11:13:23;98308.97;;;22.02;60.25
63009;BME280;49099;28.428;-16.488;2023-04-27T11:18:22;98315.78;;;22.24;59.99
63009;BME280;49099;28.428;-16.488;2023-04-27T11:20:51;98306.47;;;22.21;59.73
63009;BME280;49099;28.428;-16.488;2023-04-27T11:23:29;98312.25;;;22.08;60.44
63009;BME280;49099;28.428;-16.488;2023-04-27T11:26:13;98313.00;;;21.80;60.91
63009;BME280;49099;28.428;-16.488;2023-04-27T11:28:45;98304.34;;;21.75;61.52
63009;BME280;49099;28.428;-16.488;2023-04-27T11:31:22;98308.28;;;21.77;61.65
63009;BME280;49099;28.428;-16.488;2023-04-27T11:33:50;98316.16;;;21.82;61.12
63009;BME280;49099;28.428;-16.488;2023-04-27T11:36:21;98306.91;;;21.83;60.86
63009;BME280;49099;28.428;-16.488;2023-04-27T11:38:48;98306.47;;;21.81;60.97
63009;BME280;49099;28.428;-16.488;2023-04-27T11:41:15;98297.88;;;21.91;60.89
63009;BME280;49099;28.428;-16.488;2023-04-27T11:43:43;98310.66;;;22.07;60.83
63009;BME280;49099;28.428;-16.488;2023-04-27T11:46:19;98297.16;;;22.19;60.01
63009;BME280;49099;28.428;-16.488;2023-04-27T11:48:47;98293.75;;;22.22;59.87
63009;BME280;49099;28.428;-16.488;2023-04-27T11:51:15;98291.25;;;22.29;59.59
63009;BME280;49099;28.428;-16.488;2023-04-27T11:53:46;98295.47;;;22.42;59.45
63009;BME280;49099;28.428;-16.488;2023-04-27T11:56:13;98297.22;;;22.50;59.35
63009;BME280;49099;28.428;-16.488;2023-04-27T11:58:41;98284.13;;;22.52;59.06
63009;BME280;49099;28.428;-16.488;2023-04-27T12:01:12;98281.44;;;22.52;59.25
63009;BME280;49099;28.428;-16.488;2023-04-27T12:03:40;98281.44;;;22.52;59.44
63009;BME280;49099;28.428;-16.488;2023-04-27T12:06:08;98273.50;;;22.60;58.98
63009;BME280;49099;28.428;-16.488;2023-04-27T12:08:55;98274.81;;;22.66;58.89
63009;BME280;49099;28.428;-16.488;2023-04-27T12:11:25;98273.84;;;22.74;58.50
63009;BME280;49099;28.428;-16.488;2023-04-27T12:13:54;98283.59;;;22.63;58.73
63009;BME280;49099;28.428;-16.488;2023-04-27T12:16:21;98277.69;;;22.41;59.18
63009;BME280;49099;28.428;-16.488;2023-04-27T12:18:49;98284.47;;;22.35;59.29
63009;BME280;49099;28.428;-16.488;2023-04-27T12:21:17;98280.88;;;22.47;59.32
63009;BME280;49099;28.428;-16.488;2023-04-27T12:23:44;98286.59;;;22.58;58.94
63009;BME280;49099;28.428;-16.488;2023-04-27T12:26:11;98289.91;;;22.67;58.66
63009;BME280;49099;28.428;-16.488;2023-04-27T12:28:40;98300.91;;;22.74;58.46
63009;BME280;49099;28.428;-16.488;2023-04-27T12:31:12;98305.84;;;22.72;58.29
63009;BME280;49099;28.428;-16.488;2023-04-27T12:33:40;98309.84;;;22.62;58.47
63009;BME280;49099;28.428;-16.488;2023-04-27T12:36:07;98318.66;;;22.43;58.96
63009;BME280;49099;28.428;-16.488;2023-04-27T12:38:34;98323.84;;;22.36;59.01
63009;BME280;49099;28.428;-16.488;2023-04-27T12:41:02;98322.91;;;22.44;59.07
63009;BME280;49099;28.428;-16.488;2023-04-27T12:43:29;98324.25;;;22.50;59.04
63009;BME280;49099;28.428;-16.488;2023-04-27T12:45:56;98318.50;;;22.68;58.57
63009;BME280;49099;28.428;-16.488;2023-04-27T12:48:23;98318.75;;;22.78;58.16
63009;BME280;49099;28.428;-16.488;2023-04-27T12:50:50;98319.94;;;22.93;57.96
63009;BME280;49099;28.428;-16.488;2023-04-27T12:53:18;98325.34;;;22.93;57.54
63009;BME280;49099;28.428;-16.488;2023-04-27T12:55:45;98325.94;;;22.87;57.65
63009;BME280;49099;28.428;-16.488;2023-04-27T12:58:12;98326.06;;;22.90;58.21
63009;BME280;49099;28.428;-16.488;2023-04-27T13:00:40;98331.19;;;22.95;58.12
63009;BME280;49099;28.428;-16.488;2023-04-27T13:03:07;98323.38;;;22.78;58.16
63009;BME280;49099;28.428;-16.488;2023-04-27T13:05:35;98343.25;;;22.70;58.89